NOAA Web Site Link Tides and Currents Home Page Transparent placeholder image

Parts of the U.S. Government are closed. However, because the information this site provides is necessary to protect life and property, it will be updated and maintained during the Federal Government shutdown. For critical weather information, please visit www.weather.gov. To learn more, see www.commerce.gov.

PORTS® Data Listing: 8537121 Ship John Shoal, NJ

CO-OPS RAW PORTS DATA

************************      PRELIMINARY DATA      ************************** 

     THIS RAW DATA HAS NOT BEEN SUBJECT TO THE NATIONAL OCEAN SERVICE'S        
     QUALITY CONTROL OR QUALITY ASSURANCE PROCEDURES AND DOES NOT MEET         
     THE CRITERIA AND STANDARDS OF OFFICIAL NATIONAL OCEAN SERVICE             
     DATA.  IT IS RELEASED FOR LIMITED PUBLIC USE AS PRELIMINARY DATA TO       
     BE USED ONLY WITH APPROPRIATE CAUTION.                                    

************************      PRELIMINARY DATA      ************************** 


       CD   -   Calendar date
       T    -   Time
       TZ   -   Timezone
       PW   -   Predicted water level (feet above MLLW)
       OW   -   Observed water level (feet above MLLW)
       WS   -   Wind speed (knots)
       WD   -   Wind direction (degrees true)
       WG   -   Wind gust (knots)
       AT   -   Air temperature (degrees farenheit)
       WT   -   Water temperature (degrees farenheit)
       AP   -   Air pressure (millibars)
       SA   -   Salinty (PSU - Practical Salinity Units)
       SG   -   Specific gravity
       RH   -   Relative humidity
       AG   -   Air gap (feet)
       VI   -   Visibility (nautical miles)

       ** NOTE **
       A variable that has its data fields filled with "9"s, indicates that
       data was not collected for that sample period.
       **********


STATION NAME: Ship John Shoal (8537121)
****************************************************************************************************
    CD       T    TZ    PW     OW    WS   WD   WG    AT    WT    AP    SA    SG     RH    AG   VI
****************************************************************************************************
2019/01/22 06:24 EST    0.57  -0.50   17  335   19  16.5  35.1 1037.7 -9.9 -9.999 -99.9 -99.99 -9.99
2019/01/22 06:30 EST    0.76  -0.34   17  338   19  16.9  35.1 1037.6 -9.9 -9.999 -99.9 -99.99 -9.99
2019/01/22 06:36 EST    0.95  -0.10   16  329   19  16.9  35.1 1037.7 -9.9 -9.999 -99.9 -99.99 -9.99
2019/01/22 06:42 EST    1.16  -0.10   14  338   18  16.3  34.9 1037.8 -9.9 -9.999 -99.9 -99.99 -9.99
2019/01/22 06:48 EST    1.36  -0.14   14  328   17  16.9  34.9 1037.9 -9.9 -9.999 -99.9 -99.99 -9.99
2019/01/22 06:54 EST    1.57  -0.01   14  329   17  16.7  35.1 1038.0 -9.9 -9.999 -99.9 -99.99 -9.99
2019/01/22 07:00 EST    1.78   0.16   16  333   18  16.9  35.1 1038.0 -9.9 -9.999 -99.9 -99.99 -9.99
2019/01/22 07:06 EST    1.99   0.37   15  336   18  17.2  35.1 1038.1 -9.9 -9.999 -99.9 -99.99 -9.99
2019/01/22 07:12 EST    2.20   0.57   14  338   17  17.2  35.1 1038.3 -9.9 -9.999 -99.9 -99.99 -9.99
2019/01/22 07:18 EST    2.42   0.74   13  335   16  17.4  35.1 1038.4 -9.9 -9.999 -99.9 -99.99 -9.99
2019/01/22 07:24 EST    2.63   0.95   15  330   17  17.4  35.2 1038.6 -9.9 -9.999 -99.9 -99.99 -9.99
2019/01/22 07:30 EST    2.84   1.14   15  334   19  17.8  35.4 1038.9 -9.9 -9.999 -99.9 -99.99 -9.99
2019/01/22 07:36 EST    3.05   1.33   13  322   17  18.0  35.1 1039.2 -9.9 -9.999 -99.9 -99.99 -9.99
2019/01/22 07:42 EST    3.26   1.49   13  325   16  18.0  34.7 1039.4 -9.9 -9.999 -99.9 -99.99 -9.99
2019/01/22 07:48 EST    3.46   1.68   14  281   16  16.7  34.7 1039.5 -9.9 -9.999 -99.9 -99.99 -9.99
2019/01/22 07:54 EST    3.66   1.88   14  287   16  17.1  34.7 1039.6 -9.9 -9.999 -99.9 -99.99 -9.99
2019/01/22 08:00 EST    3.86   2.05   13  295   16  17.1  34.7 1039.7 -9.9 -9.999 -99.9 -99.99 -9.99
2019/01/22 08:06 EST    4.05   2.27   14  300   18  17.2  34.7 1039.8 -9.9 -9.999 -99.9 -99.99 -9.99
2019/01/22 08:12 EST    4.24   2.47   13  310   17  16.7  34.9 1039.7 -9.9 -9.999 -99.9 -99.99 -9.99
2019/01/22 08:18 EST    4.43   2.69   13  315   17  17.2  35.1 1039.7 -9.9 -9.999 -99.9 -99.99 -9.99
2019/01/22 08:24 EST    4.60   2.87   13  308   16  17.6  35.2 1039.7 -9.9 -9.999 -99.9 -99.99 -9.99
2019/01/22 08:30 EST    4.78   3.06   13  321   20  18.1  35.2 1039.6 -9.9 -9.999 -99.9 -99.99 -9.99
2019/01/22 08:36 EST    4.95   3.23   14  336   17  18.3  35.2 1039.6 -9.9 -9.999 -99.9 -99.99 -9.99
2019/01/22 08:42 EST    5.11   3.37   14  336   16  18.0  35.4 1039.5 -9.9 -9.999 -99.9 -99.99 -9.99
2019/01/22 08:48 EST    5.27   3.52   15  332   17  17.8  35.4 1039.5 -9.9 -9.999 -99.9 -99.99 -9.99
2019/01/22 08:54 EST    5.42   3.69   15  339   18  17.4  35.6 1039.5 -9.9 -9.999 -99.9 -99.99 -9.99
2019/01/22 09:00 EST    5.56   3.82   13  333   17  17.1  35.6 1039.6 -9.9 -9.999 -99.9 -99.99 -9.99
2019/01/22 09:06 EST    5.70   3.97   13  343   16  17.4  35.6 1039.5 -9.9 -9.999 -99.9 -99.99 -9.99
2019/01/22 09:12 EST    5.83   4.11   12  347   16  17.8  35.6 1039.5 -9.9 -9.999 -99.9 -99.99 -9.99
2019/01/22 09:18 EST    5.95   4.28   13  343   16  17.4  35.6 1039.6 -9.9 -9.999 -99.9 -99.99 -9.99
2019/01/22 09:24 EST    6.07   4.43   12  330   16  17.6  35.6 1039.7 -9.9 -9.999 -99.9 -99.99 -9.99
2019/01/22 09:30 EST    6.18   4.58   13  348   15  18.0  35.6 1039.6 -9.9 -9.999 -99.9 -99.99 -9.99
2019/01/22 09:36 EST    6.27   4.74   11  336   14  18.3  35.4 1039.8 -9.9 -9.999 -99.9 -99.99 -9.99
2019/01/22 09:42 EST    6.36   4.87   13  328   16  18.5  35.4 1040.0 -9.9 -9.999 -99.9 -99.99 -9.99
2019/01/22 09:48 EST    6.45   5.00   13  333   17  18.0  35.6 1039.9 -9.9 -9.999 -99.9 -99.99 -9.99
2019/01/22 09:54 EST    6.52   5.13   12  342   16  18.1  35.6 1039.8 -9.9 -9.999 -99.9 -99.99 -9.99
2019/01/22 10:00 EST    6.58   5.26   11  343   14  18.5  35.6 1040.0 -9.9 -9.999 -99.9 -99.99 -9.99
2019/01/22 10:06 EST    6.64   5.38   10  326   14  18.7  35.6 1040.2 -9.9 -9.999 -99.9 -99.99 -9.99
2019/01/22 10:12 EST    6.68   5.50   11  322   13  18.5  35.6 1040.3 -9.9 -9.999 -99.9 -99.99 -9.99
2019/01/22 10:18 EST    6.72   5.61   10  329   13  18.7  35.6 1040.4 -9.9 -9.999 -99.9 -99.99 -9.99
2019/01/22 10:24 EST    6.75   5.69   11  320   13  18.9  35.6 1040.6 -9.9 -9.999 -99.9 -99.99 -9.99
2019/01/22 10:30 EST    6.76   5.77   10  321   13  19.4  35.6 1040.7 -9.9 -9.999 -99.9 -99.99 -9.99
2019/01/22 10:36 EST    6.77   5.83    9  332   12  19.2  35.6 1040.7 -9.9 -9.999 -99.9 -99.99 -9.99
2019/01/22 10:42 EST    6.77   5.88   11  333   12  19.6  35.6 1040.6 -9.9 -9.999 -99.9 -99.99 -9.99
2019/01/22 10:48 EST    6.76   5.93   10  330   11  19.8  35.6 1040.5 -9.9 -9.999 -99.9 -99.99 -9.99
2019/01/22 10:54 EST    6.74   5.97    8  326   11  20.1  35.6 1040.4 -9.9 -9.999 -99.9 -99.99 -9.99
2019/01/22 11:00 EST    6.70   5.98    7  326   11  20.1  35.6 1040.4 -9.9 -9.999 -99.9 -99.99 -9.99
2019/01/22 11:06 EST    6.66   6.00    8  318   11  19.9  35.6 1040.3 -9.9 -9.999 -99.9 -99.99 -9.99
2019/01/22 11:12 EST    6.62   5.99    9  326   11  20.5  35.6 1040.3 -9.9 -9.999 -99.9 -99.99 -9.99
2019/01/22 11:18 EST    6.56   5.98    9  328   11  20.7  35.6 1040.2 -9.9 -9.999 -99.9 -99.99 -9.99
2019/01/22 11:24 EST    6.49   5.94   10  313   13  20.8  35.6 1040.1 -9.9 -9.999 -99.9 -99.99 -9.99
2019/01/22 11:30 EST    6.42   5.88   10  325   12  20.8  35.6 1040.0 -9.9 -9.999 -99.9 -99.99 -9.99
2019/01/22 11:36 EST    6.33   5.81    9  322   11  21.4  35.4 1039.9 -9.9 -9.999 -99.9 -99.99 -9.99
2019/01/22 11:42 EST    6.24   5.72    9  322   11  21.2  35.6 1039.8 -9.9 -9.999 -99.9 -99.99 -9.99
2019/01/22 11:48 EST    6.15   5.64    7  312    9  21.6  35.6 1039.7 -9.9 -9.999 -99.9 -99.99 -9.99
2019/01/22 11:54 EST    6.04   5.53    7  317   10  21.6  35.6 1039.5 -9.9 -9.999 -99.9 -99.99 -9.99
2019/01/22 12:00 EST    5.93   5.41    7  318    9  21.7  35.6 1039.4 -9.9 -9.999 -99.9 -99.99 -9.99
2019/01/22 12:06 EST    5.82   5.29    6  321    9  22.1  35.6 1039.4 -9.9 -9.999 -99.9 -99.99 -9.99
2019/01/22 12:12 EST    5.69   5.16    7  318    8  22.3  35.6 1039.2 -9.9 -9.999 -99.9 -99.99 -9.99
2019/01/22 12:18 EST    5.56   5.01    8  305    9  22.3  35.6 1039.2 -9.9 -9.999 -99.9 -99.99 -9.99
2019/01/22 12:24 EST    5.43   4.85    7  301    9  23.2  35.6 1039.2 -9.9 -9.999 -99.9 -99.99 -9.99
2019/01/22 12:30 EST    5.29   4.70    7  308    9  23.0  35.6 1038.8 -9.9 -9.999 -99.9 -99.99 -9.99
2019/01/22 12:36 EST    5.15   4.54    8  293    9  22.6  35.4 1038.8 -9.9 -9.999 -99.9 -99.99 -9.99
2019/01/22 12:42 EST    5.01   4.37    9  289   10  22.6  35.4 1038.9 -9.9 -9.999 -99.9 -99.99 -9.99
2019/01/22 12:48 EST    4.86   4.20    9  286   11  22.6  35.4 1038.8 -9.9 -9.999 -99.9 -99.99 -9.99
2019/01/22 12:54 EST    4.71   4.05    8  286   11  22.6  35.4 1038.7 -9.9 -9.999 -99.9 -99.99 -9.99
2019/01/22 13:00 EST    4.55   3.84    9  288   11  23.0  35.4 1038.9 -9.9 -9.999 -99.9 -99.99 -9.99
2019/01/22 13:06 EST    4.39   3.63    8  294   10  23.2  35.4 1038.6 -9.9 -9.999 -99.9 -99.99 -9.99
2019/01/22 13:12 EST    4.24   3.49    8  302    9  23.4  35.4 1038.6 -9.9 -9.999 -99.9 -99.99 -9.99
2019/01/22 13:18 EST    4.08   3.28    8  295    9  23.7  35.4 1038.6 -9.9 -9.999 -99.9 -99.99 -9.99
2019/01/22 13:24 EST    3.91   3.10    7  280   10  24.1  35.4 1038.6 -9.9 -9.999 -99.9 -99.99 -9.99
2019/01/22 13:30 EST    3.75   2.93    8  279    9  24.6  35.4 1038.4 -9.9 -9.999 -99.9 -99.99 -9.99
2019/01/22 13:36 EST    3.59   2.76    7  284    9  24.8  35.4 1038.3 -9.9 -9.999 -99.9 -99.99 -9.99
2019/01/22 13:42 EST    3.42   2.58    7  290    8  25.0  35.4 1038.2 -9.9 -9.999 -99.9 -99.99 -9.99
2019/01/22 13:48 EST    3.26   2.42    7  306    8  25.3  35.4 1038.0 -9.9 -9.999 -99.9 -99.99 -9.99
2019/01/22 13:54 EST    3.10   2.27    7  320    7  25.9  35.4 1038.0 -9.9 -9.999 -99.9 -99.99 -9.99
2019/01/22 14:00 EST    2.93   2.11    7  309    8  26.2  35.4 1038.1 -9.9 -9.999 -99.9 -99.99 -9.99
2019/01/22 14:06 EST    2.77   1.94    6  306    7  26.6  35.4 1038.2 -9.9 -9.999 -99.9 -99.99 -9.99
2019/01/22 14:12 EST    2.61   1.76    6  317    7  26.6  35.4 1038.1 -9.9 -9.999 -99.9 -99.99 -9.99
2019/01/22 14:18 EST    2.44   1.61    5  321    6  27.0  35.4 1038.1 -9.9 -9.999 -99.9 -99.99 -9.99
2019/01/22 14:24 EST    2.28   1.46    5  326    6  27.1  35.4 1038.0 -9.9 -9.999 -99.9 -99.99 -9.99
2019/01/22 14:30 EST    2.12   1.31    5  336    6  27.1  35.4 1037.9 -9.9 -9.999 -99.9 -99.99 -9.99
2019/01/22 14:36 EST    1.96   1.17    5  340    6  27.5  35.1 1037.8 -9.9 -9.999 -99.9 -99.99 -9.99
2019/01/22 14:42 EST    1.80   1.01    4  342    6  27.9  34.7 1037.7 -9.9 -9.999 -99.9 -99.99 -9.99
2019/01/22 14:48 EST    1.64   0.85    4  334    4  27.9  34.7 1037.8 -9.9 -9.999 -99.9 -99.99 -9.99
2019/01/22 14:54 EST    1.49   0.71    4  327    4  28.0  35.1 1037.8 -9.9 -9.999 -99.9 -99.99 -9.99
2019/01/22 15:00 EST    1.33   0.58    4  323    4  28.0  35.1 1037.7 -9.9 -9.999 -99.9 -99.99 -9.99
2019/01/22 15:06 EST    1.17   0.47    3  340    4  27.9  35.1 1037.6 -9.9 -9.999 -99.9 -99.99 -9.99
2019/01/22 15:12 EST    1.02   0.35    2  334    3  28.0  35.1 1037.6 -9.9 -9.999 -99.9 -99.99 -9.99
2019/01/22 15:18 EST    0.87   0.24    2    2    2  28.2  35.1 1037.4 -9.9 -9.999 -99.9 -99.99 -9.99
2019/01/22 15:24 EST    0.72   0.15    1   25    2  28.6  35.1 1037.4 -9.9 -9.999 -99.9 -99.99 -9.99
2019/01/22 15:30 EST    0.57   0.02    2   57    3  28.4  35.1 1037.4 -9.9 -9.999 -99.9 -99.99 -9.99
2019/01/22 15:36 EST    0.42  -0.09    1   55    2  28.6  35.1 1037.3 -9.9 -9.999 -99.9 -99.99 -9.99
2019/01/22 15:42 EST    0.28  -0.17    2   25    3  28.4  35.1 1037.4 -9.9 -9.999 -99.9 -99.99 -9.99
2019/01/22 15:48 EST    0.14  -0.30    0   12    2  29.3  35.1 1037.6 -9.9 -9.999 -99.9 -99.99 -9.99
2019/01/22 15:54 EST    0.00  -0.38    0   97    1  29.3  35.1 1037.6 -9.9 -9.999 -99.9 -99.99 -9.99
2019/01/22 16:00 EST   -0.13  -0.47    1   66    2  29.1  35.1 1037.5 -9.9 -9.999 -99.9 -99.99 -9.99
2019/01/22 16:06 EST   -0.26  -0.56    2   62    3  28.8  35.1 1037.4 -9.9 -9.999 -99.9 -99.99 -9.99
2019/01/22 16:12 EST   -0.39  -0.66    2   64    2  28.6  35.1 1037.4 -9.9 -9.999 -99.9 -99.99 -9.99
2019/01/22 16:18 EST   -0.51  -0.77    2   86    3  28.8  35.2 1037.4 -9.9 -9.999 -99.9 -99.99 -9.99
2019/01/22 16:24 EST   -0.62  -0.86    3   96    3  28.9  35.2 1037.4 -9.9 -9.999 -99.9 -99.99 -9.99
2019/01/22 16:30 EST   -0.73  -0.96    1   90    3  29.1  35.2 1037.4 -9.9 -9.999 -99.9 -99.99 -9.99
2019/01/22 16:36 EST   -0.83  -1.04    2   93    3  29.1  35.2 1037.4 -9.9 -9.999 -99.9 -99.99 -9.99
2019/01/22 16:42 EST   -0.92  -1.12    4  110    4  29.1  35.2 1037.3 -9.9 -9.999 -99.9 -99.99 -9.99
2019/01/22 16:48 EST   -1.00  -1.21    3   94    4  28.9  35.2 1037.3 -9.9 -9.999 -99.9 -99.99 -9.99
2019/01/22 16:54 EST   -1.07  -1.28    4  101    5  28.9  35.2 1037.0 -9.9 -9.999 -99.9 -99.99 -9.99
2019/01/22 17:00 EST   -1.13  -1.35    3  130    5  29.1  35.2 1037.1 -9.9 -9.999 -99.9 -99.99 -9.99
2019/01/22 17:06 EST   -1.18  -1.42    4  125    5  29.1  35.2 1037.1 -9.9 -9.999 -99.9 -99.99 -9.99
2019/01/22 17:12 EST   -1.22  -1.49    4  121    5  29.1  35.2 1037.1 -9.9 -9.999 -99.9 -99.99 -9.99
2019/01/22 17:18 EST   -1.25  -1.52    5  125    6  29.3  35.1 1037.1 -9.9 -9.999 -99.9 -99.99 -9.99
2019/01/22 17:24 EST   -1.27  -1.58    5  133    6  29.3  35.1 1037.4 -9.9 -9.999 -99.9 -99.99 -9.99
2019/01/22 17:30 EST   -1.27  -1.60    4  137    5  29.5  35.1 1037.5 -9.9 -9.999 -99.9 -99.99 -9.99
2019/01/22 17:36 EST   -1.27  -1.64    4  143    5  29.5  34.9 1037.6 -9.9 -9.999 -99.9 -99.99 -9.99
2019/01/22 17:42 EST   -1.25  -1.69    4  151    4  29.5  34.9 1037.3 -9.9 -9.999 -99.9 -99.99 -9.99
2019/01/22 17:48 EST   -1.21  -1.72    3  128    4  29.5  34.9 1037.2 -9.9 -9.999 -99.9 -99.99 -9.99
2019/01/22 17:54 EST   -1.17  -1.72    4  126    5  29.5  34.9 1037.3 -9.9 -9.999 -99.9 -99.99 -9.99
2019/01/22 18:00 EST   -1.11  -1.70    4  146    5  29.7  34.9 1037.3 -9.9 -9.999 -99.9 -99.99 -9.99
2019/01/22 18:06 EST   -1.04  -1.67    5  171    6  29.8  34.9 1037.2 -9.9 -9.999 -99.9 -99.99 -9.99
2019/01/22 18:12 EST   -0.95  -1.59    5  155    6  29.8  34.9 1037.0 -9.9 -9.999 -99.9 -99.99 -9.99
2019/01/22 18:18 EST   -0.86  -1.51    5  140    6  30.0  35.1 1037.1 -9.9 -9.999 -99.9 -99.99 -9.99
2019/01/22 18:24 EST   -0.75  -1.39    6  146    6  29.8  35.1 1037.0 -9.9 -9.999 -99.9 -99.99 -9.99
2019/01/22 18:30 EST   -0.63  -1.22    7  158    7  30.2  35.2 1036.8 -9.9 -9.999 -99.9 -99.99 -9.99
2019/01/22 18:36 EST   -0.51  -1.04    6  161    7  30.2  35.2 1037.0 -9.9 -9.999 -99.9 -99.99 -9.99
2019/01/22 18:42 EST   -0.37  -0.84    6  170    7  30.2  35.2 1037.1 -9.9 -9.999 -99.9 -99.99 -9.99
2019/01/22 18:48 EST   -0.23  -0.63    7  168    8  30.4  35.2 1037.0 -9.9 -9.999 -99.9 -99.99 -9.99
2019/01/22 18:54 EST   -0.08  -0.44    7  169    9  30.4  35.2 1037.1 -9.9 -9.999 -99.9 -99.99 -9.99
2019/01/22 19:00 EST    0.08  -0.23    8  174    9  30.4  35.4 1037.1 -9.9 -9.999 -99.9 -99.99 -9.99
2019/01/22 19:06 EST    0.25  -0.02    9  187   10  30.6  35.4 1037.1 -9.9 -9.999 -99.9 -99.99 -9.99
2019/01/22 19:12 EST    0.42   0.19    9  179   10  30.4  35.4 1037.0 -9.9 -9.999 -99.9 -99.99 -9.99
2019/01/22 19:18 EST    0.60   0.39    9  174   10  30.4  35.4 1037.0 -9.9 -9.999 -99.9 -99.99 -9.99
2019/01/22 19:24 EST    0.78   0.58    9  179   10  30.4  35.4 1036.9 -9.9 -9.999 -99.9 -99.99 -9.99
2019/01/22 19:30 EST    0.96   0.79   10  171   11  30.4  35.4 1036.9 -9.9 -9.999 -99.9 -99.99 -9.99
2019/01/22 19:36 EST    1.14   0.98   10  166   11  30.4  35.4 1036.8 -9.9 -9.999 -99.9 -99.99 -9.99
2019/01/22 19:42 EST    1.33   1.16    9  165   11  30.6  35.4 1036.8 -9.9 -9.999 -99.9 -99.99 -9.99
2019/01/22 19:48 EST    1.52   1.36    9  165   11  30.4  35.4 1036.8 -9.9 -9.999 -99.9 -99.99 -9.99
2019/01/22 19:54 EST    1.71   1.55   10  163   11  30.4  35.4 1036.8 -9.9 -9.999 -99.9 -99.99 -9.99
2019/01/22 20:00 EST    1.90   1.74   10  167   11  30.4  35.4 1036.7 -9.9 -9.999 -99.9 -99.99 -9.99
2019/01/22 20:06 EST    2.08   1.94   10  165   11  30.4  35.4 1036.7 -9.9 -9.999 -99.9 -99.99 -9.99
2019/01/22 20:12 EST    2.27   2.14   10  168   11  30.6  35.4 1036.8 -9.9 -9.999 -99.9 -99.99 -9.99
2019/01/22 20:18 EST    2.46   2.33   11  172   11  30.6  35.4 1036.6 -9.9 -9.999 -99.9 -99.99 -9.99
2019/01/22 20:24 EST    2.64   2.54   11  172   13  30.6  35.4 1036.6 -9.9 -9.999 -99.9 -99.99 -9.99
2019/01/22 20:30 EST    2.82   2.72   12  178   12  30.7  35.4 1036.7 -9.9 -9.999 -99.9 -99.99 -9.99
2019/01/22 20:36 EST    3.00   2.90   12  173   13  30.7  35.4 1036.6 -9.9 -9.999 -99.9 -99.99 -9.99
2019/01/22 20:42 EST    3.18   3.09   13  174   14  30.9  35.4 1036.4 -9.9 -9.999 -99.9 -99.99 -9.99
2019/01/22 20:48 EST    3.35   3.27   12  178   14  30.9  35.4 1036.4 -9.9 -9.999 -99.9 -99.99 -9.99
2019/01/22 20:54 EST    3.52   3.45   13  175   14  30.9  35.2 1036.2 -9.9 -9.999 -99.9 -99.99 -9.99
2019/01/22 21:00 EST    3.69   3.64   12  179   13  30.9  35.2 1036.2 -9.9 -9.999 -99.9 -99.99 -9.99
2019/01/22 21:06 EST    3.85   3.80   14  177   15  31.1  35.2 1036.0 -9.9 -9.999 -99.9 -99.99 -9.99
2019/01/22 21:12 EST    4.00   3.97   14  179   16  31.1  35.2 1035.9 -9.9 -9.999 -99.9 -99.99 -9.99
2019/01/22 21:18 EST    4.15   4.11   13  176   15  30.9  35.1 1035.9 -9.9 -9.999 -99.9 -99.99 -9.99
2019/01/22 21:24 EST    4.30   4.26   15  176   16  30.9  35.1 1035.7 -9.9 -9.999 -99.9 -99.99 -9.99
2019/01/22 21:30 EST    4.44   4.40   16  176   17  30.9  35.1 1035.6 -9.9 -9.999 -99.9 -99.99 -9.99
2019/01/22 21:36 EST    4.58   4.53   16  177   17  31.1  35.2 1035.4 -9.9 -9.999 -99.9 -99.99 -9.99
2019/01/22 21:42 EST    4.71   4.66   17  175   18  31.3  35.2 1035.4 -9.9 -9.999 -99.9 -99.99 -9.99
2019/01/22 21:48 EST    4.83   4.78   17  171   18  31.3  35.2 1035.4 -9.9 -9.999 -99.9 -99.99 -9.99
2019/01/22 21:54 EST    4.94   4.89   16  176   18  31.5  35.4 1035.5 -9.9 -9.999 -99.9 -99.99 -9.99
2019/01/22 22:00 EST    5.05   5.00   16  179   17  31.5  35.4 1035.6 -9.9 -9.999 -99.9 -99.99 -9.99
2019/01/22 22:06 EST    5.15   5.10   15  174   16  31.5  35.4 1035.4 -9.9 -9.999 -99.9 -99.99 -9.99
2019/01/22 22:12 EST    5.24   5.19   14  181   15  31.3  35.4 1035.5 -9.9 -9.999 -99.9 -99.99 -9.99
2019/01/22 22:18 EST    5.33   5.29   14  184   15  31.3  35.4 1035.7 -9.9 -9.999 -99.9 -99.99 -9.99
2019/01/22 22:24 EST    5.40   5.40   14  192   15  31.1  35.4 1035.9 -9.9 -9.999 -99.9 -99.99 -9.99
2019/01/22 22:30 EST    5.47   5.49   13  199   15  30.4  35.4 1036.0 -9.9 -9.999 -99.9 -99.99 -9.99
2019/01/22 22:36 EST    5.53   5.56   12  194   13  30.0  35.4 1036.0 -9.9 -9.999 -99.9 -99.99 -9.99
2019/01/22 22:42 EST    5.58   5.62   11  197   12  29.7  35.4 1036.0 -9.9 -9.999 -99.9 -99.99 -9.99
2019/01/22 22:48 EST    5.62   5.67   11  201   12  29.5  35.4 1036.2 -9.9 -9.999 -99.9 -99.99 -9.99
2019/01/22 22:54 EST    5.65   5.72   10  204   12  29.5  35.4 1036.1 -9.9 -9.999 -99.9 -99.99 -9.99
2019/01/22 23:00 EST    5.67   5.78   10  195   11  29.3  35.4 1036.0 -9.9 -9.999 -99.9 -99.99 -9.99
2019/01/22 23:06 EST    5.68   5.83   10  197   11  29.5  35.4 1035.9 -9.9 -9.999 -99.9 -99.99 -9.99
2019/01/22 23:12 EST    5.68   5.84   11  191   11  29.5  35.4 1035.8 -9.9 -9.999 -99.9 -99.99 -9.99
2019/01/22 23:18 EST    5.67   5.85   12  190   13  29.7  35.4 1035.6 -9.9 -9.999 -99.9 -99.99 -9.99
2019/01/22 23:24 EST    5.65   5.85   13  192   15  29.7  35.4 1035.5 -9.9 -9.999 -99.9 -99.99 -9.99
2019/01/22 23:30 EST    5.63   5.83   14  187   15  29.5  35.4 1035.4 -9.9 -9.999 -99.9 -99.99 -9.99
2019/01/22 23:36 EST    5.59   5.81   13  184   16  29.5  35.2 1035.3 -9.9 -9.999 -99.9 -99.99 -9.99
2019/01/22 23:42 EST    5.55   5.78   14  183   15  29.7  35.2 1035.3 -9.9 -9.999 -99.9 -99.99 -9.99
2019/01/22 23:48 EST    5.49   5.74   15  182   16  29.7  35.2 1035.3 -9.9 -9.999 -99.9 -99.99 -9.99
2019/01/22 23:54 EST    5.43   5.70   15  188   16  29.7  35.2 1035.3 -9.9 -9.999 -99.9 -99.99 -9.99
2019/01/23 00:00 EST    5.36   5.64   15  186   16  29.7  35.2 1035.3 -9.9 -9.999 -99.9 -99.99 -9.99
2019/01/23 00:06 EST    5.28   5.57   15  184   17  29.7  35.2 1035.0 -9.9 -9.999 -99.9 -99.99 -9.99
2019/01/23 00:12 EST    5.20   5.49   15  178   17  29.8  35.2 1034.8 -9.9 -9.999 -99.9 -99.99 -9.99
2019/01/23 00:18 EST    5.10   5.39   15  181   17  29.7  35.2 1034.7 -9.9 -9.999 -99.9 -99.99 -9.99
2019/01/23 00:24 EST    5.00 -99.99 -999 -999 -999 -99.9 -99.9 -999.9 -9.9 -9.999 -99.9 -99.99 -9.99
2019/01/23 00:30 EST    4.90 -99.99 -999 -999 -999 -99.9 -99.9 -999.9 -9.9 -9.999 -99.9 -99.99 -9.99
2019/01/23 00:36 EST    4.78 -99.99 -999 -999 -999 -99.9 -99.9 -999.9 -9.9 -9.999 -99.9 -99.99 -9.99
2019/01/23 00:42 EST    4.66 -99.99 -999 -999 -999 -99.9 -99.9 -999.9 -9.9 -9.999 -99.9 -99.99 -9.99
2019/01/23 00:48 EST    4.54 -99.99 -999 -999 -999 -99.9 -99.9 -999.9 -9.9 -9.999 -99.9 -99.99 -9.99
2019/01/23 00:54 EST    4.41 -99.99 -999 -999 -999 -99.9 -99.9 -999.9 -9.9 -9.999 -99.9 -99.99 -9.99
2019/01/23 01:00 EST    4.28 -99.99 -999 -999 -999 -99.9 -99.9 -999.9 -9.9 -9.999 -99.9 -99.99 -9.99
2019/01/23 01:06 EST    4.14 -99.99 -999 -999 -999 -99.9 -99.9 -999.9 -9.9 -9.999 -99.9 -99.99 -9.99
2019/01/23 01:12 EST    4.00 -99.99 -999 -999 -999 -99.9 -99.9 -999.9 -9.9 -9.999 -99.9 -99.99 -9.99
2019/01/23 01:18 EST    3.86 -99.99 -999 -999 -999 -99.9 -99.9 -999.9 -9.9 -9.999 -99.9 -99.99 -9.99
2019/01/23 01:24 EST    3.71 -99.99 -999 -999 -999 -99.9 -99.9 -999.9 -9.9 -9.999 -99.9 -99.99 -9.99
2019/01/23 01:30 EST    3.57 -99.99 -999 -999 -999 -99.9 -99.9 -999.9 -9.9 -9.999 -99.9 -99.99 -9.99
2019/01/23 01:36 EST    3.42 -99.99 -999 -999 -999 -99.9 -99.9 -999.9 -9.9 -9.999 -99.9 -99.99 -9.99
2019/01/23 01:42 EST    3.26 -99.99 -999 -999 -999 -99.9 -99.9 -999.9 -9.9 -9.999 -99.9 -99.99 -9.99
2019/01/23 01:48 EST    3.11 -99.99 -999 -999 -999 -99.9 -99.9 -999.9 -9.9 -9.999 -99.9 -99.99 -9.99
2019/01/23 01:54 EST    2.96 -99.99 -999 -999 -999 -99.9 -99.9 -999.9 -9.9 -9.999 -99.9 -99.99 -9.99
2019/01/23 02:00 EST    2.80 -99.99 -999 -999 -999 -99.9 -99.9 -999.9 -9.9 -9.999 -99.9 -99.99 -9.99
2019/01/23 02:06 EST    2.65 -99.99 -999 -999 -999 -99.9 -99.9 -999.9 -9.9 -9.999 -99.9 -99.99 -9.99
2019/01/23 02:12 EST    2.49 -99.99 -999 -999 -999 -99.9 -99.9 -999.9 -9.9 -9.999 -99.9 -99.99 -9.99
2019/01/23 02:18 EST    2.34 -99.99 -999 -999 -999 -99.9 -99.9 -999.9 -9.9 -9.999 -99.9 -99.99 -9.99
2019/01/23 02:24 EST    2.19 -99.99 -999 -999 -999 -99.9 -99.9 -999.9 -9.9 -9.999 -99.9 -99.99 -9.99
2019/01/23 02:30 EST    2.04 -99.99 -999 -999 -999 -99.9 -99.9 -999.9 -9.9 -9.999 -99.9 -99.99 -9.99
2019/01/23 02:36 EST    1.88 -99.99 -999 -999 -999 -99.9 -99.9 -999.9 -9.9 -9.999 -99.9 -99.99 -9.99
2019/01/23 02:42 EST    1.73 -99.99 -999 -999 -999 -99.9 -99.9 -999.9 -9.9 -9.999 -99.9 -99.99 -9.99
2019/01/23 02:48 EST    1.59 -99.99 -999 -999 -999 -99.9 -99.9 -999.9 -9.9 -9.999 -99.9 -99.99 -9.99
2019/01/23 02:54 EST    1.44 -99.99 -999 -999 -999 -99.9 -99.9 -999.9 -9.9 -9.999 -99.9 -99.99 -9.99
2019/01/23 03:00 EST    1.29 -99.99 -999 -999 -999 -99.9 -99.9 -999.9 -9.9 -9.999 -99.9 -99.99 -9.99
2019/01/23 03:06 EST    1.15 -99.99 -999 -999 -999 -99.9 -99.9 -999.9 -9.9 -9.999 -99.9 -99.99 -9.99
2019/01/23 03:12 EST    1.01 -99.99 -999 -999 -999 -99.9 -99.9 -999.9 -9.9 -9.999 -99.9 -99.99 -9.99
2019/01/23 03:18 EST    0.87 -99.99 -999 -999 -999 -99.9 -99.9 -999.9 -9.9 -9.999 -99.9 -99.99 -9.99
2019/01/23 03:24 EST    0.73 -99.99 -999 -999 -999 -99.9 -99.9 -999.9 -9.9 -9.999 -99.9 -99.99 -9.99
2019/01/23 03:30 EST    0.60 -99.99 -999 -999 -999 -99.9 -99.9 -999.9 -9.9 -9.999 -99.9 -99.99 -9.99
2019/01/23 03:36 EST    0.46 -99.99 -999 -999 -999 -99.9 -99.9 -999.9 -9.9 -9.999 -99.9 -99.99 -9.99
2019/01/23 03:42 EST    0.33 -99.99 -999 -999 -999 -99.9 -99.9 -999.9 -9.9 -9.999 -99.9 -99.99 -9.99
2019/01/23 03:48 EST    0.21 -99.99 -999 -999 -999 -99.9 -99.9 -999.9 -9.9 -9.999 -99.9 -99.99 -9.99
2019/01/23 03:54 EST    0.08 -99.99 -999 -999 -999 -99.9 -99.9 -999.9 -9.9 -9.999 -99.9 -99.99 -9.99
2019/01/23 04:00 EST   -0.04 -99.99 -999 -999 -999 -99.9 -99.9 -999.9 -9.9 -9.999 -99.9 -99.99 -9.99
2019/01/23 04:06 EST   -0.16 -99.99 -999 -999 -999 -99.9 -99.9 -999.9 -9.9 -9.999 -99.9 -99.99 -9.99
2019/01/23 04:12 EST   -0.27 -99.99 -999 -999 -999 -99.9 -99.9 -999.9 -9.9 -9.999 -99.9 -99.99 -9.99
2019/01/23 04:18 EST   -0.38 -99.99 -999 -999 -999 -99.9 -99.9 -999.9 -9.9 -9.999 -99.9 -99.99 -9.99
2019/01/23 04:24 EST   -0.49 -99.99 -999 -999 -999 -99.9 -99.9 -999.9 -9.9 -9.999 -99.9 -99.99 -9.99
2019/01/23 04:30 EST   -0.58 -99.99 -999 -999 -999 -99.9 -99.9 -999.9 -9.9 -9.999 -99.9 -99.99 -9.99
2019/01/23 04:36 EST   -0.68 -99.99 -999 -999 -999 -99.9 -99.9 -999.9 -9.9 -9.999 -99.9 -99.99 -9.99
2019/01/23 04:42 EST   -0.76 -99.99 -999 -999 -999 -99.9 -99.9 -999.9 -9.9 -9.999 -99.9 -99.99 -9.99
2019/01/23 04:48 EST   -0.84 -99.99 -999 -999 -999 -99.9 -99.9 -999.9 -9.9 -9.999 -99.9 -99.99 -9.99
2019/01/23 04:54 EST   -0.92 -99.99 -999 -999 -999 -99.9 -99.9 -999.9 -9.9 -9.999 -99.9 -99.99 -9.99
2019/01/23 05:00 EST   -0.98 -99.99 -999 -999 -999 -99.9 -99.9 -999.9 -9.9 -9.999 -99.9 -99.99 -9.99
2019/01/23 05:06 EST   -1.04 -99.99 -999 -999 -999 -99.9 -99.9 -999.9 -9.9 -9.999 -99.9 -99.99 -9.99
2019/01/23 05:12 EST   -1.08 -99.99 -999 -999 -999 -99.9 -99.9 -999.9 -9.9 -9.999 -99.9 -99.99 -9.99
2019/01/23 05:18 EST   -1.12 -99.99 -999 -999 -999 -99.9 -99.9 -999.9 -9.9 -9.999 -99.9 -99.99 -9.99
2019/01/23 05:24 EST   -1.14 -99.99 -999 -999 -999 -99.9 -99.9 -999.9 -9.9 -9.999 -99.9 -99.99 -9.99
2019/01/23 05:30 EST   -1.16 -99.99 -999 -999 -999 -99.9 -99.9 -999.9 -9.9 -9.999 -99.9 -99.99 -9.99
2019/01/23 05:36 EST   -1.16 -99.99 -999 -999 -999 -99.9 -99.9 -999.9 -9.9 -9.999 -99.9 -99.99 -9.99
2019/01/23 05:42 EST   -1.15 -99.99 -999 -999 -999 -99.9 -99.9 -999.9 -9.9 -9.999 -99.9 -99.99 -9.99
2019/01/23 05:48 EST   -1.13 -99.99 -999 -999 -999 -99.9 -99.9 -999.9 -9.9 -9.999 -99.9 -99.99 -9.99
2019/01/23 05:54 EST   -1.10 -99.99 -999 -999 -999 -99.9 -99.9 -999.9 -9.9 -9.999 -99.9 -99.99 -9.99
2019/01/23 06:00 EST   -1.06 -99.99 -999 -999 -999 -99.9 -99.9 -999.9 -9.9 -9.999 -99.9 -99.99 -9.99
2019/01/23 06:06 EST   -1.00 -99.99 -999 -999 -999 -99.9 -99.9 -999.9 -9.9 -9.999 -99.9 -99.99 -9.99
2019/01/23 06:12 EST   -0.93 -99.99 -999 -999 -999 -99.9 -99.9 -999.9 -9.9 -9.999 -99.9 -99.99 -9.99
2019/01/23 06:18 EST   -0.84 -99.99 -999 -999 -999 -99.9 -99.9 -999.9 -9.9 -9.999 -99.9 -99.99 -9.99
2019/01/23 06:24 EST   -0.75 -99.99 -999 -999 -999 -99.9 -99.9 -999.9 -9.9 -9.999 -99.9 -99.99 -9.99

Revised: 08/08/2018
NOAA / National Ocean Service
Web site owner: Center for Operational Oceanographic Products and Services